createdAt,value
2019-05-07T00:02:13.464Z,91.40
2019-05-07T00:04:42.864Z,91.60
2019-05-07T00:07:13.031Z,91.90
2019-05-07T00:09:43.018Z,92.10
2019-05-07T00:12:12.591Z,92.20
2019-05-07T00:14:42.875Z,92.40
2019-05-07T00:17:13.037Z,92.60
2019-05-07T00:19:43.234Z,92.80
2019-05-07T00:22:12.543Z,93.00
2019-05-07T00:24:42.605Z,93.10
2019-05-07T00:27:13.145Z,93.40
2019-05-07T00:29:42.879Z,93.50
2019-05-07T00:32:12.214Z,93.70
2019-05-07T00:34:42.686Z,93.80
2019-05-07T00:37:22.136Z,94.00
2019-05-07T00:39:55.099Z,94.20
2019-05-07T00:42:28.154Z,94.40
2019-05-07T00:45:14.133Z,94.40
2019-05-07T00:47:32.952Z,94.60
2019-05-07T00:50:03.376Z,94.70
2019-05-07T00:52:33.495Z,95.00
2019-05-07T00:55:03.007Z,95.10
2019-05-07T00:57:32.503Z,95.20
2019-05-07T01:00:02.196Z,95.40
2019-05-07T01:02:32.408Z,95.50
2019-05-07T01:05:02.989Z,95.70
2019-05-07T01:07:52.839Z,95.90
2019-05-07T01:10:22.303Z,96.10
2019-05-07T01:12:53.005Z,96.30
2019-05-07T01:15:28.735Z,96.40
2019-05-07T01:17:52.088Z,96.60
2019-05-07T01:20:22.166Z,96.90
2019-05-07T01:22:54.112Z,97.00
2019-05-07T01:25:22.123Z,97.30
2019-05-07T01:27:53.169Z,97.40
2019-05-07T01:30:40.354Z,97.60
2019-05-07T01:33:16.309Z,97.90
2019-05-07T01:35:46.420Z,98.10
2019-05-07T01:38:16.512Z,98.30
2019-05-07T01:40:44.961Z,98.60
2019-05-07T01:43:13.422Z,98.70
2019-05-07T01:45:49.536Z,98.90
2019-05-07T01:48:16.418Z,99.10
2019-05-07T01:50:44.944Z,99.30
2019-05-07T01:53:13.394Z,99.50
2019-05-07T01:55:42.812Z,99.60
2019-05-07T01:58:12.582Z,99.80
2019-05-07T02:00:42.497Z,99.90
2019-05-07T02:03:18.642Z,99.90
2019-05-07T02:05:52.721Z,99.90
2019-05-07T02:08:25.817Z,99.90
2019-05-07T02:10:58.646Z,99.90
2019-05-07T02:13:27.151Z,99.90
2019-05-07T02:16:00.460Z,99.90
2019-05-07T02:18:25.847Z,99.90
2019-05-07T02:20:54.386Z,99.90
2019-05-07T02:23:22.843Z,99.90
2019-05-07T02:25:52.668Z,99.90
2019-05-07T02:28:22.272Z,99.90
2019-05-07T02:30:53.470Z,99.90
2019-05-07T02:33:22.955Z,99.90
2019-05-07T02:35:53.411Z,99.90
2019-05-07T02:38:25.967Z,99.90
2019-05-07T02:40:56.129Z,99.90
2019-05-07T02:43:24.672Z,99.90
2019-05-07T02:45:57.425Z,99.90
2019-05-07T02:48:27.579Z,99.90
2019-05-07T02:51:00.499Z,99.90
2019-05-07T02:53:39.219Z,99.90
2019-05-07T02:56:07.780Z,99.90
2019-05-07T02:58:36.224Z,99.90
2019-05-07T03:01:05.282Z,99.90
2019-05-07T03:03:34.280Z,99.90
2019-05-07T03:06:03.160Z,99.90
2019-05-07T03:08:33.128Z,99.90
2019-05-07T03:11:03.315Z,99.90
2019-05-07T03:13:33.755Z,99.90
2019-05-07T03:16:03.733Z,99.90
2019-05-07T03:18:33.666Z,99.90
2019-05-07T03:21:12.561Z,99.90
2019-05-07T03:23:42.968Z,99.90
2019-05-07T03:26:13.884Z,99.90
2019-05-07T03:28:53.153Z,99.90
2019-05-07T03:31:35.956Z,99.90
2019-05-07T03:34:06.964Z,99.90
2019-05-07T03:36:46.642Z,99.90
2019-05-07T03:39:10.404Z,99.90
2019-05-07T03:41:38.942Z,99.90
2019-05-07T03:44:24.123Z,99.90
2019-05-07T03:47:01.551Z,99.90
2019-05-07T03:49:36.108Z,99.90
2019-05-07T03:52:04.679Z,99.90
2019-05-07T03:54:34.200Z,99.90
2019-05-07T03:57:10.908Z,99.90
2019-05-07T03:59:34.238Z,99.90
2019-05-07T04:02:03.641Z,99.90
2019-05-07T04:04:33.249Z,99.90
2019-05-07T04:07:03.391Z,99.90
2019-05-07T04:09:33.308Z,99.90
2019-05-07T04:12:03.958Z,99.90
2019-05-07T04:14:34.376Z,99.90
2019-05-07T04:17:15.585Z,99.90
2019-05-07T04:19:33.054Z,99.90
2019-05-07T04:22:04.392Z,99.90
2019-05-07T04:24:34.155Z,99.90
2019-05-07T04:27:13.215Z,99.90
2019-05-07T04:29:42.844Z,99.90
2019-05-07T04:32:14.373Z,99.90
2019-05-07T04:35:03.899Z,99.90
2019-05-07T04:37:33.334Z,99.90
2019-05-07T04:40:03.160Z,99.90
2019-05-07T04:42:33.356Z,99.90
2019-05-07T04:45:04.198Z,99.90
2019-05-07T04:47:42.157Z,99.90
2019-05-07T04:50:03.975Z,99.90
2019-05-07T04:52:37.431Z,99.90
2019-05-07T04:55:08.013Z,99.90
2019-05-07T04:57:36.691Z,99.90
2019-05-07T05:00:08.775Z,99.90
2019-05-07T05:02:56.971Z,99.90
2019-05-07T05:05:26.361Z,99.90
2019-05-07T05:07:54.817Z,99.90
2019-05-07T05:10:23.466Z,99.90
2019-05-07T05:12:53.623Z,99.90
2019-05-07T05:15:22.328Z,99.90
2019-05-07T05:17:53.726Z,99.90
2019-05-07T05:20:23.229Z,99.90
2019-05-07T05:22:53.391Z,99.90
2019-05-07T05:25:32.689Z,99.90
2019-05-07T05:28:02.040Z,99.90
2019-05-07T05:30:35.215Z,99.90
2019-05-07T05:33:04.382Z,99.90
2019-05-07T05:35:33.952Z,99.90
2019-05-07T05:38:03.028Z,99.90
2019-05-07T05:40:32.031Z,99.90
2019-05-07T05:43:05.200Z,99.90
2019-05-07T05:45:34.220Z,99.90
2019-05-07T05:48:07.501Z,99.90
2019-05-07T05:50:53.585Z,99.90
2019-05-07T05:53:25.951Z,99.90
2019-05-07T05:55:55.686Z,99.90
2019-05-07T05:58:34.640Z,99.90
2019-05-07T06:01:07.704Z,99.90
2019-05-07T06:03:53.851Z,99.90
2019-05-07T06:06:26.847Z,99.90
2019-05-07T06:09:12.357Z,99.90
2019-05-07T06:11:45.834Z,99.90
2019-05-07T06:14:18.651Z,99.90
2019-05-07T06:16:48.752Z,99.90
2019-05-07T06:19:18.841Z,99.90
2019-05-07T06:21:52.609Z,99.90
2019-05-07T06:24:39.498Z,99.90
2019-05-07T06:27:08.011Z,99.90
2019-05-07T06:29:36.468Z,99.90
2019-05-07T06:32:12.586Z,99.90
2019-05-07T06:34:44.251Z,99.90
2019-05-07T06:37:11.895Z,99.90
2019-05-07T06:40:19.406Z,99.90
2019-05-07T06:42:54.727Z,99.90
2019-05-07T06:45:24.815Z,99.90
2019-05-07T06:47:53.353Z,99.90
2019-05-07T06:50:22.176Z,99.90
2019-05-07T06:52:51.917Z,99.90
2019-05-07T06:55:22.874Z,99.90
2019-05-07T06:57:53.024Z,99.90
2019-05-07T07:00:24.450Z,99.90
2019-05-07T07:02:58.107Z,99.90
2019-05-07T07:05:34.011Z,99.90
2019-05-07T07:08:19.865Z,99.90
2019-05-07T07:10:51.976Z,99.90
2019-05-07T07:13:22.801Z,99.90
2019-05-07T07:15:52.250Z,99.90
2019-05-07T07:18:23.092Z,99.90
2019-05-07T07:20:52.421Z,99.80
2019-05-07T07:23:22.616Z,99.40
2019-05-07T07:25:52.268Z,99.10
2019-05-07T07:28:21.909Z,98.90
2019-05-07T07:30:52.727Z,98.50
2019-05-07T07:33:23.149Z,98.20
2019-05-07T07:35:52.148Z,97.70
2019-05-07T07:38:33.936Z,96.90
2019-05-07T07:41:07.044Z,97.10
2019-05-07T07:43:35.720Z,96.80
2019-05-07T07:46:04.247Z,96.40
2019-05-07T07:48:33.230Z,96.40
2019-05-07T07:51:03.216Z,95.60
2019-05-07T07:53:35.141Z,95.50
2019-05-07T07:56:20.026Z,95.40
2019-05-07T07:58:53.173Z,95.00
2019-05-07T08:01:23.273Z,94.90
2019-05-07T08:03:52.244Z,94.60
2019-05-07T08:06:22.564Z,94.30
2019-05-07T08:08:52.949Z,93.60
2019-05-07T08:11:21.964Z,92.80
2019-05-07T08:13:52.780Z,92.40
2019-05-07T08:16:22.257Z,92.70
2019-05-07T08:18:52.211Z,92.70
2019-05-07T08:21:22.754Z,92.00
2019-05-07T08:23:52.763Z,91.70
2019-05-07T08:26:21.918Z,91.40
2019-05-07T08:28:52.420Z,91.40
2019-05-07T08:31:38.607Z,90.40
2019-05-07T08:34:08.779Z,90.40
2019-05-07T08:36:37.553Z,88.20
2019-05-07T08:39:07.873Z,88.20
2019-05-07T08:41:36.449Z,87.50
2019-05-07T08:44:19.085Z,85.30
2019-05-07T08:46:52.194Z,84.50
2019-05-07T08:49:33.266Z,84.20
2019-05-07T08:52:03.089Z,85.00
2019-05-07T08:54:32.290Z,84.00
2019-05-07T08:57:02.807Z,83.10
2019-05-07T08:59:32.976Z,83.00
2019-05-07T09:02:02.871Z,80.40
2019-05-07T09:04:32.686Z,79.20
2019-05-07T09:07:02.668Z,78.00
2019-05-07T09:09:32.459Z,78.10
2019-05-07T09:12:02.972Z,77.50
2019-05-07T09:14:32.497Z,75.90
2019-05-07T09:17:02.616Z,74.80
2019-05-07T09:19:46.869Z,75.20
2019-05-07T09:22:03.577Z,75.00
2019-05-07T09:24:33.271Z,74.80
2019-05-07T09:27:16.344Z,74.30
2019-05-07T09:29:55.418Z,74.40
2019-05-07T09:32:37.167Z,73.40
2019-05-07T09:35:07.734Z,71.50
2019-05-07T09:37:36.263Z,71.50
2019-05-07T09:40:06.242Z,70.50
2019-05-07T09:42:34.746Z,71.50
2019-05-07T09:45:05.106Z,70.70
2019-05-07T09:47:33.553Z,71.50
2019-05-07T09:50:05.446Z,72.30
2019-05-07T09:52:32.321Z,73.00
2019-05-07T09:55:11.039Z,73.50
2019-05-07T09:57:34.353Z,73.50
2019-05-07T10:00:02.230Z,73.00
2019-05-07T10:02:32.028Z,72.00
2019-05-07T10:05:02.424Z,72.50
2019-05-07T10:07:32.459Z,72.60
2019-05-07T10:10:03.282Z,71.40
2019-05-07T10:12:33.700Z,71.00
2019-05-07T10:15:03.038Z,71.20
2019-05-07T10:17:33.575Z,70.80
2019-05-07T10:20:04.424Z,71.80
2019-05-07T10:22:32.571Z,72.10
2019-05-07T10:25:02.806Z,71.90
2019-05-07T10:27:32.481Z,71.80
2019-05-07T10:30:02.670Z,71.80
2019-05-07T10:32:32.241Z,71.80
2019-05-07T10:35:02.223Z,72.00
2019-05-07T10:37:31.892Z,71.70
2019-05-07T10:40:03.018Z,71.70
2019-05-07T10:42:32.347Z,71.70
2019-05-07T10:45:08.942Z,72.00
2019-05-07T10:47:52.130Z,71.80
2019-05-07T10:50:42.530Z,71.80
2019-05-07T10:53:12.578Z,71.70
2019-05-07T10:55:42.250Z,71.70
2019-05-07T10:58:11.398Z,72.30
2019-05-07T11:00:41.974Z,73.10
2019-05-07T11:03:12.471Z,72.50
2019-05-07T11:05:41.893Z,71.80
2019-05-07T11:08:11.279Z,71.80
2019-05-07T11:10:41.857Z,71.80
2019-05-07T11:13:12.605Z,70.80
2019-05-07T11:15:42.888Z,70.60
2019-05-07T11:18:13.878Z,69.80
2019-05-07T11:20:49.655Z,69.00
2019-05-07T11:23:13.021Z,69.20
2019-05-07T11:25:42.081Z,69.10
2019-05-07T11:28:12.365Z,68.60
2019-05-07T11:30:42.565Z,67.10
2019-05-07T11:33:12.826Z,65.90
2019-05-07T11:36:02.077Z,65.60
2019-05-07T11:38:33.165Z,65.50
2019-05-07T11:41:02.315Z,65.80
2019-05-07T11:43:47.790Z,66.40
2019-05-07T11:46:24.132Z,66.30
2019-05-07T11:48:54.219Z,66.60
2019-05-07T11:51:24.315Z,66.70
2019-05-07T11:54:09.487Z,66.10
2019-05-07T11:56:38.679Z,65.30
2019-05-07T11:59:07.781Z,64.80
2019-05-07T12:01:46.751Z,63.50
2019-05-07T12:04:08.623Z,61.60
2019-05-07T12:06:37.232Z,57.30
2019-05-07T12:09:07.485Z,53.80
2019-05-07T12:11:55.300Z,51.70
2019-05-07T12:14:36.118Z,49.60
2019-05-07T12:17:04.693Z,47.50
2019-05-07T12:19:33.303Z,46.40
2019-05-07T12:22:02.759Z,46.10
2019-05-07T12:24:32.836Z,45.40
2019-05-07T12:27:02.645Z,44.70
2019-05-07T12:29:32.293Z,43.90
2019-05-07T12:32:05.429Z,43.70
2019-05-07T12:34:38.446Z,43.70
2019-05-07T12:37:06.894Z,43.30
2019-05-07T12:39:35.358Z,43.50
2019-05-07T12:42:23.173Z,44.00
2019-05-07T12:44:51.822Z,44.70
2019-05-07T12:47:22.353Z,44.00
2019-05-07T12:50:10.175Z,43.50
2019-05-07T12:52:42.403Z,42.50
2019-05-07T12:55:23.124Z,42.70
2019-05-07T12:57:54.692Z,43.50
2019-05-07T13:00:43.682Z,43.80
2019-05-07T13:03:32.743Z,43.80
2019-05-07T13:06:02.515Z,44.00
2019-05-07T13:08:32.962Z,44.80
2019-05-07T13:11:03.134Z,45.50
2019-05-07T13:13:32.165Z,46.70
2019-05-07T13:16:02.962Z,47.80
2019-05-07T13:18:31.810Z,48.40
2019-05-07T13:21:02.235Z,49.00
2019-05-07T13:23:31.794Z,49.60
2019-05-07T13:26:02.566Z,49.40
2019-05-07T13:28:31.116Z,48.00
2019-05-07T13:30:59.568Z,46.40
2019-05-07T13:33:31.647Z,44.10
2019-05-07T13:36:19.638Z,42.90
2019-05-07T13:38:52.643Z,42.30
2019-05-07T13:41:38.939Z,42.30
2019-05-07T13:44:15.331Z,43.30
2019-05-07T13:46:45.096Z,44.30
2019-05-07T13:49:13.763Z,44.80
2019-05-07T13:51:42.805Z,45.20
2019-05-07T13:54:12.840Z,44.90
2019-05-07T13:56:42.059Z,43.90
2019-05-07T13:59:13.139Z,43.30
2019-05-07T14:01:43.101Z,42.20
2019-05-07T14:04:12.951Z,42.20
2019-05-07T14:07:01.942Z,41.90
2019-05-07T14:09:32.496Z,42.50
2019-05-07T14:12:02.020Z,43.20
2019-05-07T14:14:34.176Z,44.50
2019-05-07T14:17:02.374Z,45.50
2019-05-07T14:19:32.745Z,47.00
2019-05-07T14:22:13.932Z,48.30
2019-05-07T14:24:32.827Z,49.10
2019-05-07T14:27:02.020Z,49.10
2019-05-07T14:29:32.018Z,49.00
2019-05-07T14:32:02.460Z,49.10
2019-05-07T14:34:34.937Z,49.00
2019-05-07T14:37:07.194Z,48.30
2019-05-07T14:39:35.663Z,47.90
2019-05-07T14:42:15.114Z,48.00
2019-05-07T14:44:52.610Z,48.00
2019-05-07T14:47:22.268Z,48.10
2019-05-07T14:49:52.999Z,48.30
2019-05-07T14:52:31.941Z,48.40
2019-05-07T14:54:51.650Z,48.70
2019-05-07T14:57:21.963Z,49.10
2019-05-07T14:59:52.225Z,49.80
2019-05-07T15:02:20.713Z,50.30
2019-05-07T15:04:49.246Z,50.90
2019-05-07T15:07:17.778Z,51.90
2019-05-07T15:09:46.330Z,52.30
2019-05-07T15:12:15.186Z,52.80
2019-05-07T15:14:44.078Z,52.90
2019-05-07T15:17:26.952Z,52.70
2019-05-07T15:19:55.482Z,52.70
2019-05-07T15:22:28.335Z,52.80
2019-05-07T15:24:57.549Z,52.80
2019-05-07T15:27:26.325Z,52.70
2019-05-07T15:29:54.886Z,52.70
2019-05-07T15:32:23.339Z,53.50
2019-05-07T15:34:52.693Z,53.60
2019-05-07T15:37:21.605Z,54.70
2019-05-07T15:39:50.133Z,54.00
2019-05-07T15:42:18.639Z,52.70
2019-05-07T15:44:47.240Z,52.10
2019-05-07T15:47:26.538Z,51.80
2019-05-07T15:49:54.994Z,51.80
2019-05-07T15:52:51.476Z,52.20
2019-05-07T15:55:14.761Z,52.30
2019-05-07T15:57:43.216Z,51.90
2019-05-07T16:00:13.950Z,51.30
2019-05-07T16:02:45.309Z,51.10
2019-05-07T16:05:14.702Z,50.00
2019-05-07T16:07:44.660Z,49.40
2019-05-07T16:10:15.134Z,49.60
2019-05-07T16:12:52.919Z,49.00
2019-05-07T16:15:22.461Z,48.90
2019-05-07T16:17:55.577Z,48.90
2019-05-07T16:20:24.042Z,48.70
2019-05-07T16:22:55.131Z,48.90
2019-05-07T16:25:23.651Z,49.10
2019-05-07T16:27:52.757Z,48.80
2019-05-07T16:30:22.798Z,48.80
2019-05-07T16:32:55.149Z,49.20
2019-05-07T16:35:22.786Z,49.50
2019-05-07T16:37:52.250Z,50.00
2019-05-07T16:40:22.837Z,50.20
2019-05-07T16:42:52.445Z,50.70
2019-05-07T16:45:21.646Z,51.10
2019-05-07T16:47:51.963Z,51.00
2019-05-07T16:50:22.411Z,51.40
2019-05-07T16:53:12.185Z,51.50
2019-05-07T16:55:40.542Z,51.70
2019-05-07T16:58:12.356Z,51.70
2019-05-07T17:00:52.880Z,51.40
2019-05-07T17:03:25.810Z,51.50
2019-05-07T17:05:54.343Z,51.50
2019-05-07T17:08:27.207Z,51.40
2019-05-07T17:10:55.928Z,51.10
2019-05-07T17:13:24.390Z,51.20
2019-05-07T17:15:59.754Z,51.60
2019-05-07T17:18:29.021Z,51.50
2019-05-07T17:20:58.692Z,51.80
2019-05-07T17:23:39.808Z,52.10
2019-05-07T17:25:57.817Z,52.10
2019-05-07T17:28:27.753Z,52.00
2019-05-07T17:30:56.607Z,52.00
2019-05-07T17:33:25.077Z,52.00
2019-05-07T17:35:53.837Z,52.00
2019-05-07T17:38:23.092Z,52.10
2019-05-07T17:40:52.305Z,52.70
2019-05-07T17:43:22.005Z,53.10
2019-05-07T17:45:52.271Z,53.50
2019-05-07T17:48:23.308Z,53.80
2019-05-07T17:51:08.235Z,54.10
2019-05-07T17:53:37.063Z,54.50
2019-05-07T17:56:05.513Z,54.80
2019-05-07T17:58:34.019Z,55.20
2019-05-07T18:01:04.095Z,55.40
2019-05-07T18:03:34.195Z,55.70
2019-05-07T18:06:03.031Z,55.80
2019-05-07T18:08:32.606Z,55.80
2019-05-07T18:11:02.457Z,55.80
2019-05-07T18:13:32.379Z,55.70
2019-05-07T18:16:03.058Z,56.00
2019-05-07T18:18:32.702Z,56.00
2019-05-07T18:21:02.297Z,56.20
2019-05-07T18:23:32.075Z,56.20
2019-05-07T18:26:01.107Z,56.50
2019-05-07T18:28:29.679Z,57.00
2019-05-07T18:31:01.854Z,57.40
2019-05-07T18:33:31.182Z,57.60
2019-05-07T18:35:59.725Z,57.90
2019-05-07T18:38:28.179Z,58.20
2019-05-07T18:40:56.891Z,58.30
2019-05-07T18:43:25.354Z,58.50
2019-05-07T18:45:53.805Z,59.10
2019-05-07T18:48:22.483Z,58.90
2019-05-07T18:50:52.163Z,59.30
2019-05-07T18:53:22.741Z,59.40
2019-05-07T18:55:51.731Z,59.40
2019-05-07T18:58:22.462Z,59.80
2019-05-07T19:00:52.506Z,60.10
2019-05-07T19:03:21.859Z,60.20
2019-05-07T19:05:52.015Z,60.50
2019-05-07T19:08:22.761Z,60.60
2019-05-07T19:10:52.198Z,60.70
2019-05-07T19:13:22.222Z,60.80
2019-05-07T19:15:53.037Z,60.90
2019-05-07T19:18:22.816Z,61.20
2019-05-07T19:20:52.955Z,61.50
2019-05-07T19:23:22.396Z,61.50
2019-05-07T19:25:52.336Z,61.50
2019-05-07T19:28:22.473Z,61.60
2019-05-07T19:30:52.732Z,61.60
2019-05-07T19:33:26.171Z,62.20
2019-05-07T19:35:52.849Z,62.70
2019-05-07T19:38:21.896Z,63.70
2019-05-07T19:40:52.604Z,63.90
2019-05-07T19:43:20.646Z,63.90
2019-05-07T19:45:49.160Z,64.40
2019-05-07T19:48:17.681Z,64.70
2019-05-07T19:50:46.227Z,64.80
2019-05-07T19:53:14.682Z,64.80
2019-05-07T19:56:03.467Z,65.30
2019-05-07T19:58:32.790Z,65.70
2019-05-07T20:01:02.796Z,66.10
2019-05-07T20:03:31.517Z,66.60
2019-05-07T20:06:02.274Z,67.30
2019-05-07T20:08:32.263Z,68.50
2019-05-07T20:11:18.856Z,69.70
2019-05-07T20:13:47.326Z,70.40
2019-05-07T20:16:19.835Z,70.70
2019-05-07T20:18:48.617Z,71.00
2019-05-07T20:21:17.970Z,71.70
2019-05-07T20:23:46.435Z,72.30
2019-05-07T20:26:15.121Z,73.00
2019-05-07T20:28:43.574Z,73.40
2019-05-07T20:31:12.863Z,74.20
2019-05-07T20:33:42.223Z,75.00
2019-05-07T20:36:11.464Z,75.40
2019-05-07T20:38:39.984Z,75.90
2019-05-07T20:41:08.447Z,76.70
2019-05-07T20:43:36.907Z,77.40
2019-05-07T20:46:05.539Z,77.70
2019-05-07T20:48:34.009Z,78.10
2019-05-07T20:51:02.523Z,78.10
2019-05-07T20:53:48.801Z,78.90
2019-05-07T20:56:18.897Z,79.20
2019-05-07T20:58:47.350Z,79.60
2019-05-07T21:01:15.987Z,79.70
2019-05-07T21:03:44.448Z,80.20
2019-05-07T21:06:12.922Z,80.50
2019-05-07T21:08:42.764Z,81.20
2019-05-07T21:11:11.971Z,82.40
2019-05-07T21:13:42.643Z,83.10
2019-05-07T21:16:12.625Z,84.10
2019-05-07T21:18:42.182Z,84.80
2019-05-07T21:21:12.466Z,85.10
2019-05-07T21:23:43.209Z,85.60
2019-05-07T21:26:13.026Z,86.30
2019-05-07T21:28:43.246Z,87.00
2019-05-07T21:31:12.024Z,87.40
2019-05-07T21:33:42.680Z,87.80
2019-05-07T21:36:12.095Z,88.60
2019-05-07T21:38:42.597Z,89.50
2019-05-07T21:41:12.931Z,90.10
2019-05-07T21:43:45.592Z,90.20
2019-05-07T21:46:12.858Z,90.50
2019-05-07T21:48:41.801Z,90.80
2019-05-07T21:51:12.155Z,91.20
2019-05-07T21:53:54.051Z,91.50
2019-05-07T21:56:30.002Z,91.90
2019-05-07T21:59:03.231Z,92.50
2019-05-07T22:01:33.663Z,93.00
2019-05-07T22:04:02.217Z,93.30
2019-05-07T22:06:31.009Z,93.80
2019-05-07T22:09:01.565Z,94.00
2019-05-07T22:11:32.151Z,94.30
2019-05-07T22:14:02.079Z,94.60
2019-05-07T22:16:32.214Z,94.80
2019-05-07T22:19:02.496Z,95.00
2019-05-07T22:21:33.912Z,95.30
2019-05-07T22:24:02.855Z,95.70
2019-05-07T22:26:32.175Z,95.50
2019-05-07T22:29:03.168Z,95.80
2019-05-07T22:31:38.732Z,96.00
2019-05-07T22:34:23.863Z,96.30
2019-05-07T22:36:55.011Z,96.60
2019-05-07T22:39:22.502Z,97.00
2019-05-07T22:41:50.969Z,97.00
2019-05-07T22:44:22.719Z,97.20
2019-05-07T22:46:49.670Z,97.50
2019-05-07T22:49:18.136Z,97.60
2019-05-07T22:51:46.654Z,97.80
2019-05-07T22:54:15.157Z,97.90
2019-05-07T22:56:56.953Z,98.00
2019-05-07T22:59:25.425Z,98.20
2019-05-07T23:01:55.076Z,98.30
2019-05-07T23:04:23.792Z,98.60
2019-05-07T23:06:52.917Z,98.80
2019-05-07T23:09:22.344Z,98.90
2019-05-07T23:11:52.578Z,98.90
2019-05-07T23:14:22.654Z,99.00
2019-05-07T23:16:55.052Z,99.20
2019-05-07T23:19:22.175Z,99.20
2019-05-07T23:21:52.101Z,99.40
2019-05-07T23:24:22.734Z,99.60
2019-05-07T23:26:53.581Z,99.60
2019-05-07T23:29:22.445Z,99.70
2019-05-07T23:31:52.802Z,99.90
2019-05-07T23:34:22.174Z,99.90
2019-05-07T23:36:53.035Z,99.90
2019-05-07T23:39:22.762Z,99.90
2019-05-07T23:41:53.103Z,99.90
2019-05-07T23:44:22.889Z,99.90
2019-05-07T23:46:52.067Z,99.90
2019-05-07T23:49:22.876Z,99.90
2019-05-07T23:51:52.816Z,99.90
2019-05-07T23:54:22.910Z,99.90
2019-05-07T23:57:04.932Z,99.90
2019-05-07T23:59:22.172Z,99.90
